Latest Weather Observations for Moomba Airport

IDS60801

Issued at 10:35 pm CDT Friday 21 November 2014 (issued every 30 minutes, with the page automatically refreshed every 10 minutes)

About weather observations | Map of weather stations | Latest weather observations for SA | Other Formats
Station Details ID: 017123 Name: MOOMBA AIRPORT Lat: -28.10 Lon: 140.20 Height: 37.8 m
Data from the previous 72 hours. | See also: Recent months at Moomba Airport
Date/Time
CDT
Temp
°C
App
Temp
°C
Dew
Point
Rel
Hum
%
Delta-T
°C
Wind Press
QNH
hPa
Press
MSL
hPa
Rain
since 9 am
mm
Dir
 
Spd
km/h
Gust
km/h
Spd
kts
Gust
kts
21/10:30pm 34.7 31.7 10.5 23 14.1 SSE 17 20 9 11 1008.6 1008.4 0.0
21/10:00pm 35.2 32.5 10.3 22 14.5 SSE 15 19 8 10 1008.4 1008.2 0.0
21/09:30pm 35.5 33.0 9.8 21 14.9 S 13 19 7 10 1008.2 1008.0 0.0
21/09:00pm 36.3 33.6 10.5 21 15.2 S 15 20 8 11 1007.9 1007.7 0.0
21/08:30pm 37.0 34.3 10.3 20 15.7 S 15 17 8 9 1007.6 1007.4 0.0
21/08:00pm 37.7 36.4 10.1 19 16.2 S 7 13 4 7 1007.4 1007.2 0.0
21/07:30pm 38.7 37.6 10.1 18 16.9 S 6 11 3 6 1007.2 1007.0 0.0
21/07:00pm 39.3 37.2 9.8 17 17.3 SSW 11 17 6 9 1007.0 1006.8 0.0
21/06:30pm 39.9 37.7 9.3 16 17.9 WSW 11 20 6 11 1006.7 1006.5 0.0
21/06:00pm 39.8 38.5 9.2 16 17.9 E 6 11 3 6 1006.6 1006.4 0.0
21/05:30pm 40.5 38.5 8.8 15 18.5 W 9 15 5 8 1006.7 1006.5 0.0
21/05:00pm 40.1 37.5 9.5 16 18.0 W 13 20 7 11 1006.8 1006.6 0.0
21/04:30pm 40.6 37.1 8.9 15 18.5 WNW 17 24 9 13 1007.1 1006.9 0.0
21/04:00pm 39.8 37.2 9.2 16 17.9 WSW 13 20 7 11 1007.5 1007.3 0.0
21/03:30pm 40.5 38.1 8.8 15 18.5 ESE 11 20 6 11 1007.8 1007.6 0.0
21/03:00pm 39.4 37.5 8.9 16 17.7 SW 9 17 5 9 1008.2 1008.0 0.0
21/02:30pm 39.0 37.2 9.5 17 17.3 SW 9 15 5 8 1008.7 1008.5 0.0
21/02:00pm 38.6 36.9 10.0 18 16.8 SSE 9 19 5 10 1009.1 1008.9 0.0
21/01:30pm 38.8 37.0 9.4 17 17.2 NNW 9 15 5 8 1009.5 1009.3 0.0
21/01:00pm 37.9 36.5 9.5 18 16.5 SW 7 13 4 7 1010.1 1009.9 0.0
21/12:30pm 37.9 35.9 10.3 19 16.3 SSW 11 19 6 10 1010.4 1010.2 0.0
21/12:00pm 36.5 34.8 9.9 20 15.5 SSE 9 17 5 9 1010.6 1010.4 0.0
21/11:30am 36.9 34.5 10.2 20 15.6 ESE 13 22 7 12 1011.1 1010.9 0.0
21/11:00am 35.2 31.5 9.6 21 14.7 SSE 19 26 10 14 1011.5 1011.3 0.0
21/10:30am 34.8 31.2 9.9 22 14.4 SE 19 28 10 15 1011.5 1011.3 0.0
21/10:00am 34.1 30.4 9.4 22 14.1 SE 19 22 10 12 1011.5 1011.3 0.0
21/09:30am 33.3 29.6 9.4 23 13.6 ESE 19 22 10 12 1011.6 1011.4 0.0
21/09:00am 31.8 28.1 9.3 25 12.7 SE 19 24 10 13 1011.3 1011.1 0.0
21/08:30am 31.2 28.2 9.4 26 12.3 SSE 15 20 8 11 1011.1 1010.9 0.0
21/08:00am 29.7 26.8 9.8 29 11.2 SSE 15 20 8 11 1010.8 1010.6 0.0
21/07:30am 28.0 25.9 9.8 32 10.2 ESE 11 15 6 8 1010.6 1010.4 0.0
21/07:00am 27.1 25.8 9.9 34 9.6 SSE 7 9 4 5 1010.1 1009.9 0.0
21/06:30am 25.8 23.3 9.6 36 8.9 S 13 19 7 10 1009.6 1009.4 0.0
21/06:00am 25.0 23.1 8.9 36 8.7 S 9 15 5 8 1009.4 1009.2 0.0
21/05:30am 25.6 22.9 9.0 35 9.1 S 13 17 7 9 1009.0 1008.8 0.0
21/05:00am 25.7 23.4 9.1 35 9.1 S 11 15 6 8 1008.8 1008.6 0.0
21/04:30am 26.0 23.7 8.9 34 9.3 S 11 15 6 8 1008.5 1008.3 0.0
21/04:00am 26.1 24.1 8.6 33 9.5 S 9 13 5 7 1008.6 1008.4 0.0
21/03:30am 25.6 23.4 7.7 32 9.5 SSW 9 11 5 6 1008.7 1008.5 0.0
21/03:00am 26.3 24.2 8.3 32 9.7 S 9 13 5 7 1008.6 1008.4 0.0
21/02:30am 26.1 24.2 7.7 31 9.8 SSW 7 9 4 5 1008.8 1008.6 0.0
21/02:00am 26.3 24.4 7.4 30 10.0 SSW 7 9 4 5 1009.1 1008.9 0.0
21/01:30am 27.1 24.9 8.0 30 10.3 SSW 9 13 5 7 1009.2 1009.0 0.0
21/01:00am 27.2 25.3 6.6 27 10.9 SSW 6 7 3 4 1009.3 1009.1 0.0
21/12:30am 27.8 25.6 6.0 25 11.4 SSW 7 9 4 5 1009.5 1009.3 0.0
21/12:00am 28.5 25.8 5.4 23 12.0 SSW 9 11 5 6 1009.6 1009.4 0.0
 
Date/Time
CDT
Temp
°C
App
Temp
°C
Dew
Point
Rel
Hum
%
Delta-T
°C
Wind Press
QNH
hPa
Press
MSL
hPa
Rain
since 9 am
mm
Dir
 
Spd
km/h
Gust
km/h
Spd
kts
Gust
kts
20/11:30pm 30.1 27.1 6.1 22 12.8 SW 11 17 6 9 1009.9 1009.7 0.0
20/11:00pm 29.6 26.9 5.6 22 12.6 SW 9 13 5 7 1009.8 1009.6 0.0
20/10:30pm 29.8 26.9 6.5 23 12.5 SW 11 13 6 7 1009.6 1009.4 0.0
20/10:00pm 30.0 27.9 6.6 23 12.5 SSW 7 9 4 5 1009.4 1009.2 0.0
20/09:30pm 30.9 28.6 7.4 23 12.8 SSW 9 11 5 6 1009.0 1008.8 0.0
20/09:00pm 31.3 30.0 7.7 23 13.0 SSW 4 6 2 3 1008.8 1008.6 0.0
20/08:30pm 32.6 30.8 9.4 24 13.2 S 9 9 5 5 1008.6 1008.4 0.0
20/08:00pm 33.3 30.9 8.7 22 13.9 SSW 11 13 6 7 1008.3 1008.1 0.0
20/07:30pm 34.3 31.9 8.8 21 14.5 SSW 11 13 6 7 1008.2 1008.0 0.0
20/07:00pm 35.2 31.3 9.6 21 14.7 SSW 20 28 11 15 1007.9 1007.7 0.0
20/06:30pm 35.6 31.6 8.4 19 15.4 SSW 19 26 10 14 1007.6 1007.4 0.0
20/06:00pm 36.1 31.8 8.0 18 15.9 SSW 20 30 11 16 1007.4 1007.2 0.0
20/05:30pm 35.5 30.8 9.1 20 15.1 SSW 24 33 13 18 1007.4 1007.2 0.0
20/05:00pm 35.5 30.4 9.1 20 15.1 SSW 26 37 14 20 1007.2 1007.0 0.0
20/04:30pm 36.7 30.1 5.9 15 16.9 SW 30 43 16 23 1007.2 1007.0 0.0
20/04:00pm 37.3 30.1 3.1 12 18.0 SW 30 44 16 24 1007.3 1007.1 0.0
20/03:49pm 37.8 31.3 4.7 13 17.9 SW 28 46 15 25 1007.4 1007.2 0.0
20/03:30pm 38.5 31.4 1.5 10 19.2 SW 28 35 15 19 1007.5 1007.3 0.0
20/03:00pm 39.4 33.1 -0.9 8 20.2 WSW 22 32 12 17 1007.8 1007.6 0.0
20/02:30pm 39.0 33.0 -1.2 8 20.0 W 20 32 11 17 1008.3 1008.1 0.0
20/02:00pm 39.2 32.9 -1.1 8 20.1 WNW 22 37 12 20 1008.9 1008.7 0.0
20/01:30pm 39.0 32.7 -1.2 8 20.0 WSW 22 46 12 25 1009.2 1009.0 0.0
20/01:00pm 38.4 34.3 -3.4 7 20.0 NW 9 22 5 12 1009.4 1009.2 0.0
20/12:30pm 37.7 32.0 -3.9 7 19.7 W 17 26 9 14 1009.8 1009.6 0.0
20/12:00pm 38.0 34.4 -1.9 8 19.5 WNW 7 17 4 9 1010.1 1009.9 0.0
20/11:30am 38.1 33.4 -1.9 8 19.6 N 13 24 7 13 1010.4 1010.2 0.0
20/11:00am 37.2 31.8 -4.3 7 19.4 N 15 30 8 16 1010.3 1010.1 0.0
20/10:30am 36.6 30.2 -4.7 7 19.2 NE 20 32 11 17 1010.6 1010.4 0.0
20/10:00am 35.4 28.7 -3.8 8 18.3 NE 22 30 12 16 1010.9 1010.7 0.0
20/09:30am 34.3 27.6 -4.6 8 17.8 NE 22 28 12 15 1011.0 1010.8 0.0
20/09:00am 33.0 26.3 -4.0 9 16.9 NE 22 30 12 16 1011.2 1011.0 0.0
20/08:30am 31.4 25.0 -5.2 9 16.2 NE 20 26 11 14 1011.2 1011.0 0.0
20/08:00am 29.6 24.6 -3.9 11 14.9 NNE 13 15 7 8 1011.4 1011.2 0.0
20/07:30am 26.2 21.2 -4.4 13 13.1 NNE 13 15 7 8 1011.2 1011.0 0.0
20/07:00am 23.1 18.4 -4.9 15 11.6 NE 11 15 6 8 1010.8 1010.6 0.0
20/06:30am 21.2 17.3 -4.8 17 10.6 ENE 7 9 4 5 1010.6 1010.4 0.0
20/06:00am 20.5 15.8 -4.6 18 10.2 E 11 13 6 7 1010.3 1010.1 0.0
20/05:30am 21.3 16.7 -4.0 18 10.5 ENE 11 13 6 7 1010.2 1010.0 0.0
20/05:00am 22.3 18.2 -3.1 18 10.8 ENE 9 11 5 6 1010.2 1010.0 0.0
20/04:30am 22.4 18.3 -3.1 18 10.8 E 9 11 5 6 1010.2 1010.0 0.0
20/04:00am 21.3 16.7 -4.0 18 10.5 E 11 11 6 6 1010.3 1010.1 0.0
20/03:30am 21.4 16.7 -5.4 16 10.8 E 11 13 6 7 1010.4 1010.2 0.0
20/03:00am 22.0 18.2 -3.4 18 10.7 SE 7 11 4 6 1010.4 1010.2 0.0
20/02:30am 22.9 18.7 -4.2 16 11.3 SE 9 13 5 7 1010.5 1010.3 0.0
20/02:00am 23.0 19.5 -2.6 18 11.0 SSE 6 9 3 5 1010.7 1010.5 0.0
20/01:30am 23.4 19.7 -3.0 17 11.4 S 7 9 4 5 1010.9 1010.7 0.0
20/01:00am 23.8 20.1 -2.7 17 11.5 S 7 9 4 5 1011.1 1010.9 0.0
20/12:30am 24.1 20.3 -4.1 15 11.9 S 7 9 4 5 1011.5 1011.3 0.0
20/12:00am 24.8 21.1 -4.5 14 12.4 WSW 6 7 3 4 1011.8 1011.6 0.0
 
Date/Time
CDT
Temp
°C
App
Temp
°C
Dew
Point
Rel
Hum
%
Delta-T
°C
Wind Press
QNH
hPa
Press
MSL
hPa
Rain
since 9 am
mm
Dir
 
Spd
km/h
Gust
km/h
Spd
kts
Gust
kts
19/11:30pm 26.1 23.2 -4.4 13 13.1 ESE 2 9 1 5 1011.9 1011.7 0.0
19/11:00pm 27.0 24.5 -3.7 13 13.4 CALM 0 6 0 3 1011.8 1011.6 0.0
19/10:30pm 28.1 24.3 -3.9 12 14.1 E 7 9 4 5 1011.6 1011.4 0.0
19/10:00pm 28.4 25.9 -3.7 12 14.2 CALM 0 0 0 0 1011.4 1011.2 0.0
19/09:30pm 29.4 26.9 -4.1 11 14.9 CALM 0 0 0 0 1011.3 1011.1 0.0
19/09:00pm 30.1 26.5 -3.6 11 15.2 E 6 7 3 4 1011.2 1011.0 0.0
19/08:30pm 31.2 27.7 -2.7 11 15.6 ESE 6 7 3 4 1011.1 1010.9 0.0
19/08:00pm 32.1 28.0 -3.3 10 16.2 E 9 11 5 6 1011.1 1010.9 0.0
19/07:30pm 34.6 30.9 -2.9 9 17.7 SSE 7 11 4 6 1010.8 1010.6 0.0
19/07:00pm 35.4 30.6 -2.3 9 18.0 SSE 13 28 7 15 1010.8 1010.6 0.0
19/06:30pm 35.9 32.5 -1.9 9 18.3 WSW 6 11 3 6 1010.7 1010.5 0.0
19/06:00pm 36.1 31.8 -1.7 9 18.3 SSW 11 15 6 8 1010.7 1010.5 0.0
19/05:30pm 36.3 31.6 -1.6 9 18.4 S 13 20 7 11 1010.8 1010.6 0.0
19/05:00pm 36.1 32.5 -3.3 8 18.6 NE 6 17 3 9 1011.0 1010.8 0.0
19/04:30pm 35.9 31.7 -3.5 8 18.5 ESE 9 17 5 9 1011.3 1011.1 0.0
19/04:00pm 35.9 31.4 -3.5 8 18.5 E 11 19 6 10 1011.6 1011.4 0.0
19/03:30pm 35.3 30.7 -3.9 8 18.2 SE 11 20 6 11 1011.8 1011.6 0.0
19/03:00pm 35.9 32.3 -1.9 9 18.2 SE 7 19 4 10 1012.3 1012.1 0.0
19/02:30pm 34.5 28.9 -2.9 9 17.6 SSW 17 24 9 13 1013.0 1012.8 0.0
19/02:00pm 34.6 30.5 -2.9 9 17.6 SSE 9 15 5 8 1013.6 1013.4 0.0
19/01:30pm 34.3 29.4 -3.1 9 17.5 ESE 13 20 7 11 1014.2 1014.0 0.0
19/01:00pm 34.8 28.7 -2.7 9 17.7 E 20 22 11 12 1014.8 1014.6 0.0
19/12:30pm 34.1 29.0 -1.8 10 17.1 ESE 15 30 8 16 1015.4 1015.2 0.0
19/12:00pm 33.8 29.6 -0.7 11 16.7 SSE 11 20 6 11 1015.9 1015.7 0.0
19/11:30am 33.1 28.5 -1.3 11 16.4 ENE 13 20 7 11 1016.4 1016.2 0.0
19/11:00am 33.0 27.6 -1.4 11 16.4 ENE 17 24 9 13 1016.8 1016.6 0.0
19/10:30am 32.3 27.0 -0.7 12 15.8 ENE 17 26 9 14 1017.2 1017.0 0.0
19/10:00am 31.8 25.5 -1.1 12 15.6 E 22 28 12 15 1017.4 1017.2 0.0
19/09:30am 30.2 23.9 -1.2 13 14.7 E 22 28 12 15 1017.5 1017.3 0.0
19/09:00am 28.3 22.0 -0.8 15 13.5 E 22 30 12 16 1017.6 1017.4 0.0
19/08:30am 25.2 20.4 0.0 19 11.6 ESE 15 20 8 11 1017.4 1017.2 0.0
19/08:00am 21.5 17.3 -1.1 22 9.9 E 11 15 6 8 1017.1 1016.9 0.0
19/07:30am 21.5 17.7 -1.1 22 9.9 E 9 13 5 7 1016.9 1016.7 0.0
19/07:00am 20.2 16.7 -1.0 24 9.2 ESE 7 9 4 5 1016.6 1016.4 0.0
19/06:30am 19.5 16.0 -1.0 25 8.8 SE 7 9 4 5 1016.3 1016.1 0.0
19/06:00am 18.2 14.7 -1.1 27 8.2 SSE 7 9 4 5 1016.0 1015.8 0.0
19/05:30am 18.6 15.3 -1.3 26 8.5 SE 6 7 3 4 1015.7 1015.5 0.0
19/05:00am 18.9 15.5 -2.1 24 8.8 SSE 6 7 3 4 1015.4 1015.2 0.0
19/04:30am 19.0 15.7 -1.4 25 8.7 SSE 6 7 3 4 1015.3 1015.1 0.0
19/04:00am 19.7 16.4 -1.4 24 9.0 S 6 9 3 5 1015.4 1015.2 0.0
19/03:30am 20.4 17.1 -1.4 23 9.4 S 6 7 3 4 1015.5 1015.3 0.0
19/03:00am 21.3 17.5 -0.6 23 9.7 S 9 9 5 5 1015.5 1015.3 0.0
19/02:30am 22.5 18.4 -0.3 22 10.2 S 11 13 6 7 1015.6 1015.4 0.0
19/02:00am 23.6 19.4 -0.6 20 10.9 SSE 11 15 6 8 1015.7 1015.5 0.0
19/01:30am 25.4 21.0 0.1 19 11.7 SE 13 19 7 10 1016.1 1015.9 0.0
19/01:00am 25.9 21.5 0.5 19 11.9 SE 13 17 7 9 1016.5 1016.3 0.0
19/12:30am 24.1 21.3 -0.2 20 11.1 S 4 11 2 6 1016.9 1016.7 0.0
19/12:00am 24.6 21.2 -0.5 19 11.4 S 7 11 4 6 1017.1 1016.9 0.0
 
Date/Time
CDT
Temp
°C
App
Temp
°C
Dew
Point
Rel
Hum
%
Delta-T
°C
Wind Press
QNH
hPa
Press
MSL
hPa
Rain
since 9 am
mm
Dir
 
Spd
km/h
Gust
km/h
Spd
kts
Gust
kts
18/11:30pm 24.9 21.5 -0.3 19 11.5 S 7 9 4 5 1017.2 1017.0 0.0
18/11:00pm 24.8 21.0 -1.1 18 11.7 E 9 11 5 6 1017.3 1017.1 0.0

Other Formats:

Comma delimited format used in spreadsheet applications
http://www.bom.gov.au/fwo/IDS60801/IDS60801.95481.axf

JavaScript Object Notation format (JSON) in row-major order
http://www.bom.gov.au/fwo/IDS60801/IDS60801.95481.json